Andalusia, AL (36420)

8:17 AM CDT on October 30, 2014 (GMT -0500)
Chigger Hill off Moore Rd | Change Station
CLOSE
Current Station
Personal Weather Station
Location: Andalusia, AL
Elevation: 280 ft
Nearby Weather Stations

Elev 280 ft 31.25 °N, 86.50 °W | Updated 4 seconds ago

Clear
Clear
57.3 °F
Feels Like 57.3 °F
N
0.0
Wind Variable Wind from NNE
Gusts 7.0 mph

Today
High -- | Low -- °F
--% Chance of Precip.
Yesterday
High -- | Low -- °F
Precip. -- in
7:00 AM 5:59 PM
Waxing Crescent, 44% visible
Pressure 30.08 in
Visibility 10.0 miles
Clouds Clear
Dew Point 50 °F
Humidity 78%
Rainfall 0.00 in
Snow Depth Not available.
UV 1 out of 12
Pollen 2.00 out of 12
Air Quality Not available.
Flu Activity Not available.
METAR K79J 301256Z AUTO 05005KT 10SM CLR 16/10 A3008 RMK AO2 SLP184 T01610100

More Conditions Fewer Conditions

Pressure 30.08 in
Visibility 10.0 miles
Clouds Clear
Dew Point 50 °F
Humidity 78%
Rainfall 0.00 in
Snow Depth Not available.
UV 1 out of 12
Pollen 2.00 out of 12
Air Quality Not available.
Flu Activity Not available.
METAR K79J 301256Z AUTO 05005KT 10SM CLR 16/10 A3008 RMK AO2 SLP184 T01610100

More Conditions Fewer Conditions

10-Day Weather Forecast

Almanac

Astronomy

Oct. 30, 2014 Rise Set
Actual Time
Civil Twilight
Nautical Twilight
Astronomical Twilight
Moon
Length of Visible Light
Length of Day
Tomorrow will be .
, % of the Moon is Illuminated

Today's Extremes

State Highs State Lows

Community

WunderPhotos

Upload Photos

1,766,354 photos uploaded!

WunderBlogs® & News

Nearby

Air Quality

  Air Quality AQ Index Pollutant
Not available.

Snow Depth

Station Depth Elevation

Earthquake Activity

City Distance Mag. Time & Date
Minimum magnitude displayed is 2.5.

Coastal Water Temperatures

Place Temperature

Nearby Weather Stations